Time;durP1;ratioP1;P1;durP2;ratioP2;P2;SDS_P1;SDS_P2;PMS_P1;PMS_P2;Temp;Humidity;BMP_temperature;BMP_pressure;BME280_temperature;BME280_humidity;BME280_pressure;Samples;Min_cycle;Max_cycle;Signal;HPM_P1;HPM_P2
2023/01/22 00:02:07;;;;;;;;;;;;;;;0.96;100.00;103205.16;10168839;28;19921;-70
2023/01/22 00:07:04;;;;;;;;;;;;;;;0.80;100.00;103214.31;10177739;28;19921;-68
2023/01/22 00:12:00;;;;;;;;;;;;;;;0.91;100.00;103199.53;10165397;28;19960;-68
2023/01/22 00:16:57;;;;;;;;;;;;;;;0.83;100.00;103199.63;10171054;28;19968;-68
2023/01/22 00:21:53;;;;;;;;;;;;;;;0.71;100.00;103187.69;10174966;28;20006;-69
2023/01/22 00:26:49;;;;;;;;;;;;;;;0.78;100.00;103191.28;10171138;28;19960;-68
2023/01/22 00:31:45;;;;;;;;;;;;;;;0.95;100.00;103189.19;10176200;28;19921;-68
2023/01/22 00:36:42;;;;;;;;;;;;;;;0.93;100.00;103186.69;10161838;28;19922;-68
2023/01/22 00:41:38;;;;;;;;;;;;;;;1.11;100.00;103188.09;10172546;28;19968;-69
2023/01/22 00:46:35;;;;;;;;;;;;;;;1.22;100.00;103179.47;10174923;28;19928;-68
2023/01/22 00:51:32;;;;;;;;;;;;;;;1.05;100.00;103184.31;10169878;28;19921;-69
2023/01/22 00:56:28;;;;;;;;;;;;;;;1.13;100.00;103180.63;10170486;28;19967;-69
2023/01/22 01:01:25;;;;;;;;;;;;;;;1.02;100.00;103180.16;10184479;28;19925;-68
2023/01/22 01:06:21;;;;;;;;;;;;;;;1.22;100.00;103184.88;10174989;28;19921;-69
2023/01/22 01:11:21;;;;;;;;;;;;;;;0.89;100.00;103169.25;10182389;28;20180;-68
2023/01/22 01:16:22;;;;;;;;;;;;;;;1.08;100.00;103169.63;10164896;28;19921;-69
2023/01/22 01:21:19;;;;;;;;;;;;;;;0.75;100.00;103172.84;10167716;28;19941;-71
2023/01/22 01:26:15;;;;;;;;;;;;;;;0.75;100.00;103172.84;10168249;28;20035;-71
2023/01/22 01:31:14;;;;;;;;;;;;;;;0.67;100.00;103170.25;10164174;28;20336;-71
2023/01/22 01:36:15;;;;;;;;;;;;;;;0.89;100.00;103174.63;10172379;28;19921;-69
2023/01/22 01:41:15;;;;;;;;;;;;;;;0.92;100.00;103171.53;10182390;28;20395;-68
2023/01/22 01:46:17;;;;;;;;;;;;;;;0.92;100.00;103168.84;10179410;28;20344;-70
2023/01/22 01:51:34;;;;;;;;;;;;;;;0.86;100.00;103172.34;10189251;28;19932;-70
2023/01/22 01:56:39;;;;;;;;;;;;;;;0.89;100.00;103174.63;10171415;28;19925;-68
2023/01/22 02:01:36;;;;;;;;;;;;;;;0.83;100.00;103170.81;10183729;28;19959;-68
2023/01/22 02:06:32;;;;;;;;;;;;;;;0.77;100.00;103160.03;10179708;28;19976;-70
2023/01/22 02:11:29;;;;;;;;;;;;;;;0.85;100.00;103173.34;10182361;28;19930;-67
2023/01/22 02:16:25;;;;;;;;;;;;;;;1.09;100.00;103168.56;10171598;28;19928;-70
2023/01/22 02:21:28;;;;;;;;;;;;;;;0.75;100.00;103172.84;10175423;28;19979;-71
2023/01/22 02:26:24;;;;;;;;;;;;;;;0.62;100.00;103162.75;10171066;28;19925;-68
2023/01/22 02:31:20;;;;;;;;;;;;;;;0.79;100.00;103174.09;10178555;28;19927;-68
2023/01/22 02:36:16;;;;;;;;;;;;;;;0.69;100.00;103157.44;10185058;28;19968;-69
2023/01/22 02:41:14;;;;;;;;;;;;;;;0.75;100.00;103164.75;10179111;28;20380;-70
2023/01/22 02:46:10;;;;;;;;;;;;;;;0.73;100.00;103164.13;10173396;28;19933;-70
2023/01/22 02:51:06;;;;;;;;;;;;;;;0.80;100.00;103156.94;10179151;28;19928;-71
2023/01/22 02:56:12;;;;;;;;;;;;;;;0.93;100.00;103162.44;10183556;28;19960;-70
2023/01/22 03:01:19;;;;;;;;;;;;;;;0.81;100.00;103166.66;10193738;28;19928;-71
2023/01/22 03:06:20;;;;;;;;;;;;;;;0.93;100.00;103162.44;10178902;28;19925;-70
2023/01/22 03:11:16;;;;;;;;;;;;;;;0.95;100.00;103160.41;10178429;28;19928;-71
2023/01/22 03:21:27;;;;;;;;;;;;;;;0.79;100.00;103157.94;10183867;28;19925;-70
2023/01/22 03:26:24;;;;;;;;;;;;;;;0.70;100.00;103145.66;10175828;28;20008;-70
2023/01/22 03:31:20;;;;;;;;;;;;;;;0.66;100.00;103153.28;10180618;28;20016;-70
2023/01/22 03:36:16;;;;;;;;;;;;;;;0.70;100.00;103148.34;10198993;28;19981;-70
2023/01/22 03:41:14;;;;;;;;;;;;;;;0.82;100.00;103144.09;10173172;28;19922;-69
2023/01/22 03:46:12;;;;;;;;;;;;;;;0.76;100.00;103152.94;10162197;28;19957;-70
2023/01/22 03:51:10;;;;;;;;;;;;;;;0.68;100.00;103142.31;10180320;28;19921;-70
2023/01/22 03:56:09;;;;;;;;;;;;;;;0.73;100.00;103142.56;10176497;28;19928;-70
2023/01/22 04:01:10;;;;;;;;;;;;;;;0.86;100.00;103150.78;10180904;28;20029;-69
2023/01/22 04:06:07;;;;;;;;;;;;;;;0.79;100.00;103141.78;10175194;28;19925;-69
2023/01/22 04:11:04;;;;;;;;;;;;;;;0.90;100.00;103149.34;10176422;28;19925;-69
2023/01/22 04:16:01;;;;;;;;;;;;;;;0.81;100.00;103145.97;10173166;28;20398;-69
2023/01/22 04:20:57;;;;;;;;;;;;;;;0.70;100.00;103153.72;10174067;28;21168;-70
2023/01/22 04:25:54;;;;;;;;;;;;;;;0.86;100.00;103155.31;10175869;28;20021;-69
2023/01/22 04:30:51;;;;;;;;;;;;;;;0.89;100.00;103158.47;10186951;28;19928;-69
2023/01/22 04:35:49;;;;;;;;;;;;;;;1.03;100.00;103154.03;10177732;28;20291;-69
2023/01/22 04:40:45;;;;;;;;;;;;;;;1.01;100.00;103140.75;10175971;28;19932;-68
2023/01/22 04:45:41;;;;;;;;;;;;;;;0.72;100.00;103140.88;10161735;28;20372;-69
2023/01/22 04:50:38;;;;;;;;;;;;;;;0.89;100.00;103130.72;10170613;28;19921;-69
2023/01/22 04:55:34;;;;;;;;;;;;;;;0.85;100.00;103141.03;10182200;28;20003;-69
2023/01/22 05:00:31;;;;;;;;;;;;;;;0.75;100.00;103129.75;10185720;28;19932;-70
2023/01/22 05:05:27;;;;;;;;;;;;;;;0.96;100.00;103143.19;10182032;28;19928;-70
2023/01/22 05:10:24;;;;;;;;;;;;;;;0.91;100.00;103129.47;10164713;28;19922;-71
2023/01/22 05:15:20;;;;;;;;;;;;;;;0.78;100.00;103137.44;10176394;28;20326;-71
2023/01/22 05:20:20;;;;;;;;;;;;;;;0.98;100.00;103133.06;10160116;28;20012;-70
2023/01/22 05:25:16;;;;;;;;;;;;;;;1.03;100.00;103137.88;10194462;28;20025;-71
2023/01/22 05:30:13;;;;;;;;;;;;;;;0.83;100.00;103138.50;10181430;28;20363;-70
2023/01/22 05:35:09;;;;;;;;;;;;;;;1.02;100.00;103137.03;10185072;28;19921;-69
2023/01/22 05:40:06;;;;;;;;;;;;;;;0.87;100.00;103138.13;10184419;28;19929;-70
2023/01/22 05:45:02;;;;;;;;;;;;;;;1.07;100.00;103138.28;10175561;28;20029;-72
2023/01/22 05:49:59;;;;;;;;;;;;;;;1.10;100.00;103135.22;10182624;28;19928;-71
2023/01/22 05:54:55;;;;;;;;;;;;;;;0.88;100.00;103140.63;10170166;28;19927;-68
2023/01/22 05:59:51;;;;;;;;;;;;;;;1.07;100.00;103154.47;10175236;28;20016;-68
2023/01/22 06:04:47;;;;;;;;;;;;;;;1.02;100.00;103153.22;10176852;28;19976;-68
2023/01/22 06:09:44;;;;;;;;;;;;;;;0.99;100.00;103153.56;10143367;28;1048568;-69
2023/01/22 06:14:41;;;;;;;;;;;;;;;0.91;100.00;103159.13;10189059;28;20067;-68
2023/01/22 06:19:37;;;;;;;;;;;;;;;1.17;100.00;103149.59;10171875;28;20720;-69
2023/01/22 06:24:33;;;;;;;;;;;;;;;1.32;100.00;103152.19;10181768;28;19921;-69
2023/01/22 06:29:30;;;;;;;;;;;;;;;1.19;100.00;103142.16;10190330;28;19921;-69
2023/01/22 06:34:26;;;;;;;;;;;;;;;1.25;100.00;103146.75;10180192;28;20290;-70
2023/01/22 06:39:22;;;;;;;;;;;;;;;1.01;100.00;103148.81;10184599;28;19965;-71
2023/01/22 06:44:19;;;;;;;;;;;;;;;1.03;100.00;103154.84;10172513;28;19954;-71
2023/01/22 06:49:15;;;;;;;;;;;;;;;1.27;100.00;103155.47;10173126;28;19972;-70
2023/01/22 06:54:11;;;;;;;;;;;;;;;1.16;100.00;103158.69;10164697;28;19921;-70
2023/01/22 06:59:07;;;;;;;;;;;;;;;1.40;100.00;103165.53;10176992;28;20398;-70
2023/01/22 07:04:04;;;;;;;;;;;;;;;1.29;100.00;103169.56;10175915;28;19921;-70
2023/01/22 07:09:00;;;;;;;;;;;;;;;1.38;100.00;103184.59;10174773;28;20265;-70
2023/01/22 07:13:56;;;;;;;;;;;;;;;1.44;100.00;103189.19;10176904;28;19925;-70
2023/01/22 07:18:53;;;;;;;;;;;;;;;1.51;100.00;103186.56;10176824;28;20656;-70
2023/01/22 07:23:49;;;;;;;;;;;;;;;1.65;100.00;103184.78;10183125;28;19935;-69
2023/01/22 07:28:45;;;;;;;;;;;;;;;1.53;100.00;103191.72;10183633;28;20288;-68
2023/01/22 07:33:41;;;;;;;;;;;;;;;1.43;100.00;103184.81;10176286;28;19932;-68
2023/01/22 07:38:38;;;;;;;;;;;;;;;1.55;100.00;103190.50;10175900;28;19925;-68
2023/01/22 07:43:34;;;;;;;;;;;;;;;1.47;100.00;103194.19;10171826;28;19925;-68
2023/01/22 07:48:31;;;;;;;;;;;;;;;1.51;100.00;103209.97;10175136;28;19968;-69
2023/01/22 07:53:27;;;;;;;;;;;;;;;1.75;100.00;103206.84;10166003;28;20009;-69
2023/01/22 07:58:23;;;;;;;;;;;;;;;1.57;100.00;103215.41;10171888;28;20423;-69
2023/01/22 08:03:20;;;;;;;;;;;;;;;1.83;100.00;103220.19;10171468;28;19922;-70
2023/01/22 08:08:19;;;;;;;;;;;;;;;1.70;100.00;103214.69;10171525;28;19928;-71
2023/01/22 08:13:15;;;;;;;;;;;;;;;1.59;100.00;103217.94;10177073;28;20480;-70
2023/01/22 08:18:11;;;;;;;;;;;;;;;1.54;100.00;103226.59;10168893;28;19921;-71
2023/01/22 08:23:08;;;;;;;;;;;;;;;1.72;100.00;103247.69;10163417;28;20529;-70
2023/01/22 08:28:05;;;;;;;;;;;;;;;2.01;100.00;103248.50;10162020;28;19925;-71
2023/01/22 08:33:04;;;;;;;;;;;;;;;1.83;100.00;103241.75;10164033;28;19928;-71
2023/01/22 08:38:00;;;;;;;;;;;;;;;1.84;100.00;103259.59;10179380;28;20302;-72
2023/01/22 08:42:57;;;;;;;;;;;;;;;1.84;100.00;103248.00;10169191;28;20315;-71
2023/01/22 08:47:58;;;;;;;;;;;;;;;1.97;100.00;103244.53;10162835;28;20016;-69
2023/01/22 08:52:56;;;;;;;;;;;;;;;1.94;100.00;103248.47;10173960;28;19929;-69
2023/01/22 08:57:53;;;;;;;;;;;;;;;1.79;100.00;103256.66;10172010;28;19949;-70
2023/01/22 09:02:55;;;;;;;;;;;;;;;1.65;100.00;103268.41;10162463;28;20033;-69
2023/01/22 09:07:51;;;;;;;;;;;;;;;1.82;100.00;103253.56;10157791;28;19925;-69
2023/01/22 09:12:47;;;;;;;;;;;;;;;1.90;100.00;103263.38;10183082;28;20041;-70
2023/01/22 09:17:43;;;;;;;;;;;;;;;1.99;100.00;103255.97;10151074;28;19922;-70
2023/01/22 09:22:43;;;;;;;;;;;;;;;1.99;100.00;103261.34;10176664;28;19928;-73
2023/01/22 09:27:39;;;;;;;;;;;;;;;2.07;100.00;103247.72;10150231;28;19926;-73
2023/01/22 09:32:35;;;;;;;;;;;;;;;2.12;100.00;103253.34;10165785;28;19925;-72
2023/01/22 09:37:32;;;;;;;;;;;;;;;2.06;100.00;103257.66;10164524;28;19921;-71
2023/01/22 09:42:30;;;;;;;;;;;;;;;2.18;100.00;103255.25;10171057;28;19928;-72
2023/01/22 09:47:34;;;;;;;;;;;;;;;1.99;100.00;103255.97;10158024;28;19922;-72
2023/01/22 09:52:32;;;;;;;;;;;;;;;2.04;100.00;103253.50;10163152;28;19926;-72
2023/01/22 09:57:28;;;;;;;;;;;;;;;2.21;100.00;103249.44;10163242;28;19928;-72
2023/01/22 10:02:43;;;;;;;;;;;;;;;2.26;100.00;103257.78;10168395;28;19976;-72
2023/01/22 10:07:42;;;;;;;;;;;;;;;2.31;100.00;103255.31;10168840;28;19929;-72
2023/01/22 10:12:39;;;;;;;;;;;;;;;2.41;100.00;103260.34;10168738;28;20016;-73
2023/01/22 10:17:37;;;;;;;;;;;;;;;2.44;100.00;103253.72;10170721;28;20426;-72
2023/01/22 10:22:34;;;;;;;;;;;;;;;2.47;100.00;103253.31;10169626;28;19926;-72
2023/01/22 10:27:40;;;;;;;;;;;;;;;2.53;100.00;103252.53;10175336;28;19933;-73
2023/01/22 10:32:36;;;;;;;;;;;;;;;2.42;100.00;103251.22;10183024;28;19928;-72
2023/01/22 10:37:52;;;;;;;;;;;;;;;2.63;100.00;103247.56;10172787;28;19926;-73
2023/01/22 10:43:02;;;;;;;;;;;;;;;2.70;100.00;103236.78;10180422;28;19921;-72
2023/01/22 10:48:02;;;;;;;;;;;;;;;2.84;100.00;103235.78;10172646;28;19921;-71
2023/01/22 10:52:59;;;;;;;;;;;;;;;2.85;100.00;103233.91;10169627;28;19972;-70
2023/01/22 10:58:01;;;;;;;;;;;;;;;2.88;100.00;103228.94;10181929;28;19929;-71
2023/01/22 11:02:58;;;;;;;;;;;;;;;2.87;100.00;103231.81;10182732;28;19984;-71
2023/01/22 11:07:59;;;;;;;;;;;;;;;2.96;100.00;103230.59;10170299;28;19984;-71
2023/01/22 11:13:18;;;;;;;;;;;;;;;2.90;100.00;103226.00;10167382;28;19932;-71
2023/01/22 11:18:27;;;;;;;;;;;;;;;2.80;100.00;103214.78;10179226;28;19925;-70
2023/01/22 11:24:02;;;;;;;;;;;;;;;2.89;100.00;103216.25;10179544;28;20401;-70
2023/01/22 11:29:04;;;;;;;;;;;;;;;3.07;100.00;103216.47;10102778;28;19934;-70
2023/01/22 11:34:09;;;;;;;;;;;;;;;3.15;100.00;103218.97;11328038;22;19964;-68
2023/01/22 11:39:14;;;;;;;;;;;;;;;3.22;100.00;103212.75;10234322;28;20493;-66
2023/01/22 11:44:11;;;;;;;;;;;;;;;3.15;100.00;103208.16;10254578;28;20003;-67
2023/01/22 11:49:13;;;;;;;;;;;;;;;3.38;100.00;103196.09;10245535;28;20400;-67
2023/01/22 11:54:28;;;;;;;;;;;;;;;3.12;100.00;103205.88;10255215;28;19925;-67
2023/01/22 11:59:27;;;;;;;;;;;;;;;3.34;100.00;103200.25;10254985;28;19928;-67
2023/01/22 12:04:36;;;;;;;;;;;;;;;3.27;100.00;103199.44;10253503;28;19920;-67
2023/01/22 12:09:53;;;;;;;;;;;;;;;3.37;100.00;103194.47;10253328;28;20334;-67
2023/01/22 12:14:55;;;;;;;;;;;;;;;3.35;100.00;103200.06;10263284;28;19927;-68
2023/01/22 12:19:51;;;;;;;;;;;;;;;3.40;100.00;103195.91;10255135;28;19931;-67
2023/01/22 12:24:54;;;;;;;;;;;;;;;3.53;100.00;103204.84;10250742;28;19921;-67
2023/01/22 12:29:54;;;;;;;;;;;;;;;3.51;100.00;103190.69;10262982;28;20383;-67
2023/01/22 12:34:56;;;;;;;;;;;;;;;3.40;100.00;103199.44;10243743;28;19960;-67
2023/01/22 12:40:11;;;;;;;;;;;;;;;3.61;100.00;103190.25;10254477;28;19960;-67
2023/01/22 12:45:24;;;;;;;;;;;;;;;3.73;100.00;103196.69;10246890;28;19927;-67
2023/01/22 12:50:21;;;;;;;;;;;;;;;3.52;100.00;103184.22;10249705;28;19920;-67
2023/01/22 12:55:21;;;;;;;;;;;;;;;3.51;100.00;103196.09;10243125;28;20424;-67
2023/01/22 13:00:21;;;;;;;;;;;;;;;3.37;100.00;103199.88;10256348;28;19935;-67
2023/01/22 13:05:29;;;;;;;;;;;;;;;3.37;100.00;103199.88;10253221;28;20011;-67
2023/01/22 13:10:29;;;;;;;;;;;;;;;3.50;100.00;103199.84;10249430;28;19990;-67
2023/01/22 13:15:28;;;;;;;;;;;;;;;3.51;100.00;103189.88;10261382;28;21152;-66
2023/01/22 13:20:26;;;;;;;;;;;;;;;3.51;100.00;103206.94;10254700;28;20397;-68
2023/01/22 13:25:26;;;;;;;;;;;;;;;3.51;100.00;103200.69;10239127;28;19925;-67
2023/01/22 13:30:27;;;;;;;;;;;;;;;3.63;100.00;103192.78;10261219;28;19925;-68
2023/01/22 13:35:23;;;;;;;;;;;;;;;3.76;100.00;103203.53;10253162;28;20130;-68
2023/01/22 13:40:25;;;;;;;;;;;;;;;3.73;100.00;103210.22;10256609;28;19936;-68
2023/01/22 13:45:24;;;;;;;;;;;;;;;3.77;100.00;103205.22;10267679;28;20010;-68
2023/01/22 13:50:23;;;;;;;;;;;;;;;3.88;100.00;103211.88;10261268;28;20008;-68
2023/01/22 13:55:21;;;;;;;;;;;;;;;3.78;100.00;103212.28;10252785;28;19994;-69
2023/01/22 14:00:27;;;;;;;;;;;;;;;3.69;100.00;103211.69;10253598;28;20489;-68
2023/01/22 14:05:25;;;;;;;;;;;;;;;3.81;100.00;103217.31;10253814;28;20463;-68
2023/01/22 14:10:23;;;;;;;;;;;;;;;3.92;100.00;103218.50;10250545;28;20379;-68
2023/01/22 14:15:20;;;;;;;;;;;;;;;3.88;100.00;103218.13;10254483;28;20362;-67
2023/01/22 14:20:16;;;;;;;;;;;;;;;3.86;100.00;103220.19;10255060;28;19920;-68
2023/01/22 14:25:13;;;;;;;;;;;;;;;3.81;100.00;103222.72;10254527;28;20270;-68
2023/01/22 14:30:13;;;;;;;;;;;;;;;3.78;100.00;103244.75;10267498;28;19921;-68
2023/01/22 14:35:20;;;;;;;;;;;;;;;3.85;100.00;103240.16;10263629;28;19928;-69
2023/01/22 14:40:16;;;;;;;;;;;;;;;3.78;100.00;103244.75;10253252;28;19972;-68
2023/01/22 14:45:14;;;;;;;;;;;;;;;3.75;100.00;103250.59;10249799;28;20016;-68
2023/01/22 14:50:12;;;;;;;;;;;;;;;3.74;100.00;103259.78;10250254;28;19921;-68
2023/01/22 14:55:08;;;;;;;;;;;;;;;3.63;100.00;103252.28;10255842;28;19921;-68
2023/01/22 15:00:05;;;;;;;;;;;;;;;3.77;100.00;103256.66;10259987;28;19927;-68
2023/01/22 15:05:02;;;;;;;;;;;;;;;3.66;100.00;103257.28;10252629;28;20613;-69
2023/01/22 15:09:59;;;;;;;;;;;;;;;3.63;100.00;103263.13;10252070;28;19928;-68
2023/01/22 15:14:55;;;;;;;;;;;;;;;3.64;100.00;103271.00;10262586;28;19924;-69
2023/01/22 15:19:52;;;;;;;;;;;;;;;3.71;100.00;103276.41;10254372;28;19921;-68
2023/01/22 15:24:48;;;;;;;;;;;;;;;3.61;100.00;103292.25;10260816;28;19924;-69
2023/01/22 15:29:45;;;;;;;;;;;;;;;3.67;100.00;103286.00;10247804;28;20293;-69
2023/01/22 15:34:41;;;;;;;;;;;;;;;3.62;100.00;103288.50;10252959;28;19994;-68
2023/01/22 15:39:37;;;;;;;;;;;;;;;3.56;100.00;103301.81;10251385;28;19964;-68
2023/01/22 15:44:34;;;;;;;;;;;;;;;3.58;100.00;103298.91;10250564;28;19920;-68
2023/01/22 15:49:30;;;;;;;;;;;;;;;3.68;100.00;103309.31;10249583;28;20003;-69
2023/01/22 15:54:27;;;;;;;;;;;;;;;3.57;100.00;103311.59;10255670;28;20483;-69
2023/01/22 15:59:23;;;;;;;;;;;;;;;3.62;100.00;103315.53;10247015;28;19925;-69
2023/01/22 16:04:20;;;;;;;;;;;;;;;3.50;100.00;103320.75;10259442;28;19928;-68
2023/01/22 16:09:16;;;;;;;;;;;;;;;3.58;100.00;103315.97;10250105;28;19959;-69
2023/01/22 16:14:12;;;;;;;;;;;;;;;3.59;100.00;103322.22;10251869;28;19921;-68
2023/01/22 16:19:09;;;;;;;;;;;;;;;3.63;100.00;103323.47;10261677;28;19955;-70
2023/01/22 16:24:06;;;;;;;;;;;;;;;3.56;100.00;103328.88;10263517;28;20504;-69
2023/01/22 16:29:03;;;;;;;;;;;;;;;3.47;100.00;103324.69;10247460;28;20378;-69
2023/01/22 16:34:05;;;;;;;;;;;;;;;3.59;100.00;103333.84;10261718;28;19964;-68
2023/01/22 16:39:02;;;;;;;;;;;;;;;3.64;100.00;103329.69;10252687;28;20401;-69
2023/01/22 16:44:00;;;;;;;;;;;;;;;3.65;100.00;103326.78;10262709;28;19956;-69
2023/01/22 16:48:58;;;;;;;;;;;;;;;3.56;100.00;103331.56;10258392;28;19987;-69
2023/01/22 16:53:55;;;;;;;;;;;;;;;3.53;100.00;103333.88;10257297;28;20023;-69
2023/01/22 16:58:51;;;;;;;;;;;;;;;3.59;100.00;103343.84;10255121;28;19925;-68
2023/01/22 17:03:47;;;;;;;;;;;;;;;3.66;100.00;103343.84;10265390;28;19927;-68
2023/01/22 17:08:44;;;;;;;;;;;;;;;3.59;100.00;103344.66;10273568;28;19924;-68
2023/01/22 17:13:40;;;;;;;;;;;;;;;3.65;100.00;103344.91;10278032;28;20371;-69
2023/01/22 17:18:37;;;;;;;;;;;;;;;3.52;100.00;103349.25;10273148;28;20376;-69
2023/01/22 17:23:33;;;;;;;;;;;;;;;3.56;100.00;103339.69;10267102;28;19964;-68
2023/01/22 17:33:10;;;;;;;12.07;10.38;;;;;;;3.52;100.00;103349.25;10240688;27;20199;-67
2023/01/22 17:38:11;;;;;;;11.70;10.00;;;;;;;3.46;100.00;103354.63;10247663;28;20069;-68
2023/01/22 17:43:08;;;;;;;11.48;10.38;;;;;;;3.43;100.00;103368.59;10238136;28;20050;-68
2023/01/22 17:48:05;;;;;;;12.40;11.25;;;;;;;3.46;100.00;103360.91;10218566;28;20065;-68
2023/01/22 17:53:01;;;;;;;11.90;10.73;;;;;;;3.52;100.00;103370.06;10219961;28;20515;-68
2023/01/22 17:57:58;;;;;;;11.18;10.05;;;;;;;3.55;100.00;103375.06;10218216;28;20104;-67
2023/01/22 18:02:55;;;;;;;11.68;10.80;;;;;;;3.40;100.00;103377.94;10231111;28;20558;-68
2023/01/22 18:07:51;;;;;;;12.02;10.63;;;;;;;3.43;100.00;103393.75;10261395;28;20689;-69
2023/01/22 18:12:48;;;;;;;11.70;10.80;;;;;;;3.40;100.00;103387.94;10237807;28;20048;-68
2023/01/22 18:17:44;;;;;;;12.57;11.48;;;;;;;3.17;100.00;103389.94;10258227;28;20080;-68
2023/01/22 18:22:40;;;;;;;13.18;11.82;;;;;;;3.27;100.00;103394.13;10245738;28;20430;-68
2023/01/22 18:27:37;;;;;;;13.77;12.13;;;;;;;3.30;100.00;103399.16;10256974;28;20068;-69
2023/01/22 18:32:34;;;;;;;12.48;11.25;;;;;;;3.35;100.00;103396.66;10282415;28;20720;-68
2023/01/22 18:37:32;;;;;;;11.55;10.55;;;;;;;3.40;100.00;103394.16;10271186;28;20231;-68
2023/01/22 18:42:31;;;;;;;15.77;12.60;;;;;;;3.37;100.00;103410.81;10272640;28;20056;-68
2023/01/22 18:47:28;;;;;;;12.13;11.13;;;;;;;3.35;100.00;103407.47;10264675;28;20048;-68
2023/01/22 18:52:26;;;;;;;11.25;10.20;;;;;;;3.38;100.00;103412.47;10273324;28;20068;-68
2023/01/22 18:57:28;;;;;;;11.10;10.05;;;;;;;3.27;100.00;103418.47;10273674;28;20128;-68
2023/01/22 19:02:25;;;;;;;11.40;10.43;;;;;;;3.16;100.00;103415.31;10274437;28;20073;-69
2023/01/22 19:07:21;;;;;;;10.82;9.90;;;;;;;3.23;100.00;103431.56;10251959;28;20584;-69
2023/01/22 19:12:19;;;;;;;11.52;10.65;;;;;;;3.20;100.00;103420.31;10264427;28;20083;-69
2023/01/22 19:17:15;;;;;;;12.65;11.43;;;;;;;3.07;100.00;103431.91;10275406;28;20185;-68
2023/01/22 19:22:12;;;;;;;11.30;10.48;;;;;;;3.19;100.00;103440.28;10247262;28;20077;-68
2023/01/22 19:27:09;;;;;;;11.65;10.70;;;;;;;3.20;100.00;103441.94;10254349;28;20092;-68
2023/01/22 19:32:10;;;;;;;11.57;10.57;;;;;;;3.22;100.00;103439.88;10233750;28;20053;-68
2023/01/22 19:37:06;;;;;;;10.93;10.18;;;;;;;3.22;100.00;103445.28;10229648;28;20065;-68
2023/01/22 19:42:05;;;;;;;11.13;10.20;;;;;;;3.20;100.00;103448.16;10235893;28;20072;-68
2023/01/22 19:47:02;;;;;;;11.35;10.43;;;;;;;3.22;100.00;103450.69;10234142;28;20097;-68
2023/01/22 19:51:58;;;;;;;11.73;10.65;;;;;;;3.20;100.00;103455.47;10230366;28;20041;-68
2023/01/22 19:56:55;;;;;;;10.90;9.98;;;;;;;3.31;100.00;103460.28;10228685;28;20052;-68
2023/01/22 20:01:52;;;;;;;10.15;9.35;;;;;;;3.23;100.00;103468.59;10234707;28;20049;-68
2023/01/22 20:06:50;;;;;;;11.02;10.10;;;;;;;3.22;100.00;103477.72;10235588;28;20781;-68
2023/01/22 20:11:52;;;;;;;11.30;10.20;;;;;;;3.28;100.00;103476.94;10229013;28;20041;-68
2023/01/22 20:16:49;;;;;;;11.02;10.00;;;;;;;3.28;100.00;103474.22;10238963;28;20052;-68
2023/01/22 20:21:46;;;;;;;11.40;9.50;;;;;;;3.26;100.00;103489.81;10246519;28;20045;-68
2023/01/22 20:26:42;;;;;;;11.00;10.13;;;;;;;3.12;100.00;103500.56;10231688;28;20425;-68
2023/01/22 20:31:39;;;;;;;12.05;10.82;;;;;;;3.21;100.00;103513.94;10242047;28;20049;-68
2023/01/22 20:36:35;;;;;;;12.27;11.32;;;;;;;2.99;100.00;103511.28;10229885;28;20045;-68
2023/01/22 20:41:33;;;;;;;11.93;10.80;;;;;;;3.10;100.00;103512.59;10236645;28;20562;-68
2023/01/22 20:46:29;;;;;;;12.23;11.43;;;;;;;3.11;100.00;103509.72;10229341;28;20057;-68
2023/01/22 20:51:27;;;;;;;12.85;11.63;;;;;;;3.17;100.00;103511.59;10228358;28;20045;-68
2023/01/22 20:56:29;;;;;;;12.85;11.80;;;;;;;3.17;100.00;103514.31;10217605;28;20049;-68
2023/01/22 21:01:26;;;;;;;13.37;12.27;;;;;;;3.03;100.00;103512.56;10226682;28;20053;-66
2023/01/22 21:06:26;;;;;;;12.85;11.85;;;;;;;3.16;100.00;103511.81;10224658;28;20045;-66
2023/01/22 21:11:24;;;;;;;12.95;11.95;;;;;;;3.20;100.00;103512.25;10234051;28;20079;-66
2023/01/22 21:16:28;;;;;;;13.05;12.07;;;;;;;3.24;100.00;103510.81;10228040;28;20080;-67
2023/01/22 21:21:25;;;;;;;12.70;11.57;;;;;;;3.10;100.00;103502.63;10222545;28;20044;-68
2023/01/22 21:26:25;;;;;;;12.85;11.88;;;;;;;3.13;100.00;103507.66;10234861;28;20309;-68
2023/01/22 21:31:23;;;;;;;13.88;12.77;;;;;;;3.00;100.00;103507.56;10223784;28;20462;-68
2023/01/22 21:36:21;;;;;;;13.23;12.15;;;;;;;2.94;100.00;103508.34;10237205;28;20558;-68
2023/01/22 21:41:18;;;;;;;14.82;13.52;;;;;;;3.00;100.00;103506.72;10238888;28;20049;-68
2023/01/22 21:46:21;;;;;;;14.80;13.50;;;;;;;2.99;100.00;103505.88;10228018;28;20521;-68
2023/01/22 21:51:17;;;;;;;;;;;;;;;3.05;100.00;103510.50;10223041;28;20052;-68
2023/01/22 21:56:13;;;;;;;17.38;13.20;;;;;;;2.89;100.00;103508.94;10226747;28;19987;-68
2023/01/22 22:01:14;;;;;;;12.85;11.95;;;;;;;3.10;100.00;103518.84;10237890;28;20069;-68
2023/01/22 22:06:12;;;;;;;14.38;13.23;;;;;;;3.10;100.00;103518.84;10227126;28;20503;-68
2023/01/22 22:11:10;;;;;;;12.85;11.93;;;;;;;3.03;100.00;103528.78;10232766;28;20468;-68
2023/01/22 22:16:07;;;;;;;13.00;12.00;;;;;;;3.14;100.00;103528.22;10229613;28;20076;-66
2023/01/22 22:21:06;;;;;;;13.50;12.57;;;;;;;2.97;100.00;103532.28;10241884;28;20396;-67
2023/01/22 22:26:04;;;;;;;14.27;13.10;;;;;;;3.02;100.00;103535.22;10238514;28;20124;-68
2023/01/22 22:31:10;;;;;;;15.38;12.90;;;;;;;2.99;100.00;103535.59;10235635;28;20470;-68
2023/01/22 22:36:07;;;;;;;13.45;12.35;;;;;;;3.05;100.00;103532.13;10233291;28;20045;-68
2023/01/22 22:41:13;;;;;;;13.43;12.38;;;;;;;2.89;100.00;103543.25;10236934;28;20624;-67
2023/01/22 22:46:25;;;;;;;13.82;12.70;;;;;;;2.87;100.00;103539.91;10233334;28;20089;-68
2023/01/22 22:51:33;;;;;;;13.82;12.77;;;;;;;2.84;100.00;103540.31;10232781;28;20038;-68
2023/01/22 22:56:30;;;;;;;13.65;12.60;;;;;;;2.89;100.00;103551.34;10231185;28;20045;-66
2023/01/22 23:01:29;;;;;;;13.85;12.55;;;;;;;2.97;100.00;103548.50;10237841;28;20525;-66
2023/01/22 23:06:28;;;;;;;13.60;12.35;;;;;;;2.90;100.00;103544.91;10240461;28;20435;-66
2023/01/22 23:11:31;;;;;;;12.52;11.57;;;;;;;3.02;100.00;103537.94;10237796;28;20216;-66
2023/01/22 23:16:31;;;;;;;12.90;11.85;;;;;;;2.97;100.00;103537.69;10240091;28;20041;-66
2023/01/22 23:21:28;;;;;;;13.55;12.38;;;;;;;2.95;100.00;103537.06;10233471;28;20053;-66
2023/01/22 23:26:28;;;;;;;12.70;11.73;;;;;;;2.88;100.00;103536.19;10235297;28;20051;-67
2023/01/22 23:31:26;;;;;;;13.90;13.00;;;;;;;2.89;100.00;103537.84;10233139;28;20128;-66
2023/01/22 23:36:25;;;;;;;13.18;12.27;;;;;;;2.95;100.00;103537.06;10235665;28;20049;-67
2023/01/22 23:41:22;;;;;;;14.18;13.10;;;;;;;2.90;100.00;103534.09;10235000;28;20057;-66
2023/01/22 23:46:22;;;;;;;14.27;13.05;;;;;;;2.80;100.00;103528.22;10239155;28;20057;-66
2023/01/22 23:51:18;;;;;;;14.35;13.35;;;;;;;2.73;100.00;103526.28;10231595;28;20053;-67
2023/01/22 23:56:15;;;;;;;14.55;13.65;;;;;;;2.66;100.00;103538.91;10236986;28;20100;-68
